Time;durP1;ratioP1;P1;durP2;ratioP2;P2;SDS_P1;SDS_P2;PMS_P1;PMS_P2;Temp;Humidity;BMP_temperature;BMP_pressure;BME280_temperature;BME280_humidity;BME280_pressure;Samples;Min_cycle;Max_cycle;Signal;HPM_P1;HPM_P2
2022/01/17 00:01:07;;;;;;;;;;;2.70;99.90;;;1.65;99.27;96866.06;10515378;28;1856;-77
2022/01/17 00:06:10;;;;;;;;;;;2.70;99.90;;;1.63;98.95;96861.78;10490309;28;1918;-76
2022/01/17 00:11:14;;;;;;;;;;;2.70;99.90;;;1.57;99.05;96854.59;10490310;28;1811;-77
2022/01/17 00:16:21;;;;;;;;;;;2.70;99.90;;;1.61;97.42;96861.16;10486494;28;2196;-79
2022/01/17 00:21:24;;;;;;;;;;;2.70;99.90;;;1.53;97.00;96845.41;10489637;28;1835;-77
2022/01/17 00:26:27;;;;;;;;;;;2.70;99.90;;;1.63;96.69;96851.19;10486374;28;1949;-76
2022/01/17 00:31:30;;;;;;;;;;;2.70;99.90;;;1.69;96.04;96852.25;10494172;28;1843;-77
2022/01/17 00:36:32;;;;;;;;;;;2.70;99.90;;;1.63;95.22;96859.13;10488815;28;1986;-77
2022/01/17 00:41:36;;;;;;;;;;;2.70;99.90;;;1.64;94.70;96865.25;10486480;28;1850;-77
2022/01/17 00:46:39;;;;;;;;;;;2.70;99.90;;;1.65;94.72;96871.38;10468746;22;1977;-73
2022/01/17 00:51:42;;;;;;;;;;;2.70;99.90;;;1.57;93.79;96862.53;10423000;28;1662;-73
2022/01/17 00:56:50;;;;;;;;;;;2.70;99.90;;;1.61;93.77;96860.34;10431408;28;1853;-73
2022/01/17 01:01:53;;;;;;;;;;;2.70;99.90;;;1.59;93.04;96867.66;10433337;28;1909;-73
2022/01/17 01:06:57;;;;;;;;;;;2.70;99.90;;;1.51;93.69;96873.91;10433674;28;1821;-73
2022/01/17 01:11:59;;;;;;;;;;;2.60;99.90;;;1.39;97.37;96878.06;10431861;28;1883;-73
2022/01/17 01:17:08;;;;;;;;;;;2.50;99.90;;;1.21;98.89;96877.66;10432889;28;1775;-72
2022/01/17 01:27:50;;;;;;;;;;;2.30;99.90;;;1.20;99.75;96878.69;10431924;28;1860;-73
2022/01/17 01:32:56;;;;;;;;;;;2.30;99.90;;;1.30;96.35;96879.19;10436483;28;1824;-73
2022/01/17 01:38:01;;;;;;;;;;;2.40;99.90;;;1.30;94.82;96873.91;10447295;28;1847;-72
2022/01/17 01:43:03;;;;;;;;;;;2.40;99.90;;;1.32;93.67;96869.22;10434122;28;1902;-74
2022/01/17 01:48:08;;;;;;;;;;;2.40;99.90;;;1.37;92.52;96858.91;10425101;28;1903;-73
2022/01/17 01:53:11;;;;;;;;;;;2.40;99.90;;;1.45;91.32;96847.34;10437281;28;1874;-74
2022/01/17 01:58:15;;;;;;;;;;;2.50;99.90;;;1.39;90.13;96848.91;10441739;28;1930;-73
2022/01/17 02:03:18;;;;;;;;;;;2.50;99.90;;;1.51;90.39;96831.50;10463481;28;1906;-73
2022/01/17 02:08:21;;;;;;;;;;;2.60;99.90;;;1.56;90.07;96837.06;10437710;28;1841;-73
2022/01/17 02:13:25;;;;;;;;;;;2.60;99.90;;;1.57;88.95;96833.41;10439406;28;1874;-73
2022/01/17 02:18:31;;;;;;;;;;;2.70;99.90;;;1.68;88.85;96839.19;10438318;28;1845;-72
2022/01/17 02:23:35;;;;;;;;;;;2.70;99.90;;;1.61;88.53;96832.00;10455035;28;1971;-73
2022/01/17 02:28:39;;;;;;;;;;;2.70;99.90;;;1.64;88.73;96828.16;10436358;28;1830;-73
2022/01/17 02:33:49;;;;;;;;;;;2.80;99.90;;;1.65;87.23;96828.97;10448208;28;1765;-73
2022/01/17 02:38:52;;;;;;;;;;;2.80;99.90;;;1.71;86.74;96834.31;10433479;28;1978;-73
2022/01/17 02:43:56;;;;;;;;;;;2.80;99.90;;;1.70;86.66;96829.22;10440606;28;1958;-73
2022/01/17 02:49:02;;;;;;;;;;;2.80;99.90;;;1.68;86.28;96829.41;10433920;28;1978;-73
2022/01/17 02:54:05;;;;;;;;;;;2.80;99.90;;;1.74;86.61;96822.53;10437048;28;1961;-74
2022/01/17 02:59:08;;;;;;;;;;;2.90;99.90;;;1.73;86.75;96805.81;10439657;28;1843;-73
2022/01/17 03:04:11;;;;;;;;;;;2.90;99.90;;;1.75;87.01;96798.47;10435046;28;1973;-73
2022/01/17 03:09:14;;;;;;;;;;;2.90;99.90;;;1.70;87.63;96792.09;10433206;28;2047;-73
2022/01/17 03:14:16;;;;;;;;;;;2.80;99.90;;;1.56;87.75;96805.25;10441284;28;2083;-75
2022/01/17 03:19:22;;;;;;;;;;;2.70;99.90;;;1.46;87.42;96791.50;10447641;28;1967;-73
2022/01/17 03:24:26;;;;;;;;;;;2.70;99.90;;;1.41;88.51;96796.59;10449788;28;2496;-73
2022/01/17 03:29:29;;;;;;;;;;;2.60;99.90;;;1.42;88.24;96808.81;10438823;28;1976;-72
2022/01/17 03:34:39;;;;;;;;;;;2.60;99.90;;;1.38;88.36;96814.66;10455513;28;2023;-72
2022/01/17 03:39:42;;;;;;;;;;;2.50;99.90;;;1.28;88.82;96813.19;10435852;28;2033;-73
2022/01/17 03:44:45;;;;;;;;;;;2.50;99.90;;;1.29;89.20;96829.88;10436039;28;2028;-74
2022/01/17 03:49:50;;;;;;;;;;;2.50;99.90;;;1.40;89.30;96810.84;10431770;28;2036;-74
2022/01/17 03:54:53;;;;;;;;;;;2.50;99.90;;;1.44;89.76;96790.88;10432075;28;1975;-73
2022/01/17 03:59:56;;;;;;;;;;;2.50;99.90;;;1.55;90.66;96761.22;10436039;28;2158;-73
2022/01/17 04:05:01;;;;;;;;;;;2.60;99.90;;;1.58;91.56;96771.41;10433772;28;1979;-73
2022/01/17 04:10:04;;;;;;;;;;;2.70;99.90;;;1.69;91.35;96803.72;10433671;28;1965;-73
2022/01/17 04:15:07;;;;;;;;;;;2.70;99.90;;;1.67;92.39;96784.56;10436484;28;1933;-73
2022/01/17 04:20:13;;;;;;;;;;;2.80;99.90;;;1.57;92.91;96816.66;10436340;28;1940;-73
2022/01/17 04:25:16;;;;;;;;;;;2.70;99.90;;;1.57;93.13;96822.78;10429565;28;1930;-73
2022/01/17 04:30:19;;;;;;;;;;;2.70;99.90;;;1.55;93.58;96838.06;10441165;28;2081;-73
2022/01/17 04:35:24;;;;;;;;;;;2.70;99.90;;;1.58;93.95;96829.72;10432430;28;2018;-73
2022/01/17 04:40:33;;;;;;;;;;;2.70;99.90;;;1.53;94.16;96832.16;10427136;28;2141;-73
2022/01/17 04:45:36;;;;;;;;;;;2.70;99.90;;;1.56;94.40;96831.75;10431927;28;2002;-73
2022/01/17 04:50:39;;;;;;;;;;;2.70;99.90;;;1.60;93.58;96853.41;10429542;28;2003;-73
2022/01/17 04:55:42;;;;;;;;;;;2.70;99.90;;;1.58;93.92;96853.56;10446272;28;1986;-73
2022/01/17 05:00:46;;;;;;;;;;;2.70;99.90;;;1.61;93.95;96884.19;10430866;28;1888;-73
2022/01/17 05:05:50;;;;;;;;;;;2.70;99.90;;;1.62;94.49;96856.69;10445230;28;1978;-73
2022/01/17 05:10:54;;;;;;;;;;;2.70;99.90;;;1.62;94.32;96838.13;10438835;28;1975;-74
2022/01/17 05:16:07;;;;;;;;;;;2.70;99.90;;;1.66;94.07;96831.44;10435946;28;1970;-73
2022/01/17 05:21:12;;;;;;;;;;;2.80;99.90;;;1.68;93.70;96828.59;10435126;28;1975;-73
2022/01/17 05:26:15;;;;;;;;;;;2.80;99.90;;;1.72;93.43;96830.69;10440825;28;1977;-72
2022/01/17 05:31:22;;;;;;;;;;;2.80;99.90;;;1.81;92.81;96837.47;10441623;28;1860;-73
2022/01/17 05:36:25;;;;;;;;;;;2.90;99.90;;;1.86;92.66;96832.41;10433348;28;1956;-74
2022/01/17 05:41:28;;;;;;;;;;;2.90;99.90;;;1.86;91.48;96821.81;10432566;28;1983;-72
2022/01/17 05:46:30;;;;;;;;;;;3.00;99.90;;;1.86;91.96;96828.94;10440456;28;1912;-73
2022/01/17 05:51:34;;;;;;;;;;;3.00;99.90;;;1.86;92.08;96852.81;10437765;28;1891;-73
2022/01/17 05:56:37;;;;;;;;;;;3.00;99.90;;;1.94;91.33;96860.59;10439724;28;2078;-73
2022/01/17 06:01:42;;;;;;;;;;;3.00;99.90;;;2.00;90.75;96864.31;10438209;28;1882;-73
2022/01/17 06:06:45;;;;;;;;;;;3.20;99.90;;;2.05;91.38;96880.50;10435059;28;1989;-73
2022/01/17 06:11:48;;;;;;;;;;;3.10;99.90;;;2.07;90.02;96881.91;10437116;28;2086;-73
2022/01/17 06:16:51;;;;;;;;;;;3.10;99.90;;;2.03;90.44;96859.44;10436784;28;2083;-72
2022/01/17 06:21:54;;;;;;;;;;;3.10;99.90;;;2.10;90.75;96868.28;10437642;28;2007;-72
2022/01/17 06:26:58;;;;;;;;;;;3.20;99.90;;;2.13;90.25;96849.31;10439885;28;1971;-71
2022/01/17 06:32:01;;;;;;;;;;;3.20;99.90;;;2.21;90.09;96858.13;10433414;28;2033;-73
2022/01/17 06:37:24;;;;;;;;;;;3.20;99.90;;;2.25;90.07;96851.44;10432407;28;1991;-75
2022/01/17 06:42:27;;;;;;;;;;;3.50;99.90;;;2.19;89.64;96842.41;10441559;28;2257;-74
2022/01/17 06:47:31;;;;;;;;;;;3.30;99.90;;;2.23;89.37;96846.34;10430551;28;1981;-74
2022/01/17 06:52:34;;;;;;;;;;;3.30;99.90;;;2.24;89.66;96850.63;10429304;28;2009;-73
2022/01/17 06:57:40;;;;;;;;;;;3.30;99.90;;;2.29;89.66;96832.28;10430497;28;1956;-73
2022/01/17 07:02:43;;;;;;;;;;;3.40;99.90;;;2.32;89.34;96841.69;10429861;28;1981;-74
2022/01/17 07:07:46;;;;;;;;;;;3.40;99.90;;;2.29;90.06;96839.41;10433961;28;1997;-74
2022/01/17 07:12:51;;;;;;;;;;;3.40;99.90;;;2.41;88.55;96875.00;10436762;28;1978;-74
2022/01/17 07:17:54;;;;;;;;;;;3.40;99.90;;;2.35;89.58;96889.84;10436739;28;1797;-74
2022/01/17 07:22:57;;;;;;;;;;;3.40;99.90;;;2.42;89.43;96941.16;10439831;28;1909;-75
2022/01/17 07:28:00;;;;;;;;;;;3.40;99.90;;;2.37;89.63;96956.84;10426994;28;2008;-79
2022/01/17 07:33:03;;;;;;;;;;;3.50;99.90;;;2.47;90.22;96993.66;10441892;28;1911;-78
2022/01/17 07:38:06;;;;;;;;;;;3.50;99.90;;;2.54;89.21;97018.41;10438613;28;1978;-80
2022/01/17 07:43:10;;;;;;;;;;;3.50;99.90;;;2.56;89.47;96950.03;10447383;28;1982;-80
2022/01/17 07:48:44;;;;;;;;;;;3.60;99.90;;;2.55;89.61;96953.72;10432896;28;2054;-77
2022/01/17 07:53:46;;;;;;;;;;;3.60;99.90;;;2.64;88.94;96939.25;10435777;28;2372;-74
2022/01/17 07:58:49;;;;;;;;;;;3.80;99.90;;;2.78;89.92;96921.56;10437243;28;1986;-76
2022/01/17 08:03:53;;;;;;;;;;;3.70;99.90;;;2.63;90.27;96932.31;10438882;28;1973;-75
2022/01/17 08:08:57;;;;;;;;;;;3.70;99.90;;;2.78;89.65;96936.69;10443908;28;1796;-76
2022/01/17 08:14:00;;;;;;;;;;;3.80;99.90;;;2.74;90.33;96954.03;10442585;28;1874;-79
2022/01/17 08:19:04;;;;;;;;;;;3.80;99.90;;;2.89;90.41;96954.72;10445701;28;1885;-77
2022/01/17 08:24:07;;;;;;;;;;;3.90;99.90;;;2.85;91.33;96950.81;10457151;28;2292;-78
2022/01/17 08:29:10;;;;;;;;;;;3.90;99.90;;;2.95;91.24;96948.63;10438796;28;1778;-80
2022/01/17 08:34:13;;;;;;;;;;;4.80;99.90;;;3.05;90.79;96957.03;10446171;28;1879;-78
2022/01/17 08:39:17;;;;;;;;;;;4.10;99.90;;;3.18;90.73;96948.31;10441566;28;1812;-76
2022/01/17 08:44:20;;;;;;;;;;;4.10;99.90;;;3.12;90.82;96955.25;10435844;28;1919;-76
2022/01/17 08:49:23;;;;;;;;;;;4.20;99.90;;;3.10;91.12;96911.28;10442285;28;1783;-78
2022/01/17 08:54:27;;;;;;;;;;;4.20;99.90;;;3.08;91.47;96911.50;10427633;28;1859;-77
2022/01/17 08:59:32;;;;;;;;;;;4.20;99.90;;;3.25;91.15;96938.53;10446736;28;1779;-76
2022/01/17 09:04:40;;;;;;;;;;;4.30;99.90;;;3.25;91.10;96970.44;10470523;28;1887;-79
2022/01/17 09:09:43;;;;;;;;;;;4.30;99.90;;;3.32;91.07;96933.25;10464743;28;1874;-76
2022/01/17 09:14:46;;;;;;;;;;;4.40;99.90;;;3.34;91.00;96942.66;10459658;28;1841;-73
2022/01/17 09:19:51;;;;;;;;;;;4.30;99.90;;;3.66;89.50;96961.56;10442975;28;1824;-74
2022/01/17 09:24:56;;;;;;;;;;;4.50;99.90;;;3.87;88.38;96997.81;10436456;28;1918;-74
2022/01/17 09:29:59;;;;;;;;;;;4.80;99.90;;;3.88;87.20;96980.84;10434903;28;1795;-73
2022/01/17 09:35:04;;;;;;;;;;;4.90;99.90;;;3.97;86.48;96958.34;10441024;28;1815;-73
2022/01/17 09:40:09;;;;;;;;;;;5.00;99.90;;;3.85;86.52;96942.16;10435250;28;1839;-73
2022/01/17 09:45:12;;;;;;;;;;;5.00;99.90;;;3.93;86.64;96975.72;10437719;28;1969;-74
2022/01/17 09:50:17;;;;;;;;;;;5.00;99.90;;;3.77;87.77;96998.22;10433892;28;1855;-74
2022/01/17 09:55:22;;;;;;;;;;;4.80;99.90;;;4.01;86.60;96988.88;10435006;28;1812;-73
2022/01/17 10:00:26;;;;;;;;;;;5.00;99.90;;;4.32;84.48;96996.25;10446679;28;1839;-76
2022/01/17 10:05:29;;;;;;;;;;;5.20;99.90;;;4.69;82.22;96997.47;10443619;28;2245;-77
2022/01/17 10:10:32;;;;;;;;;;;5.60;99.90;;;4.93;81.23;97000.53;10446590;28;2350;-76
2022/01/17 10:15:45;;;;;;;;;;;5.90;99.90;;;4.68;82.44;96982.53;10446807;28;1766;-76
2022/01/17 10:20:54;;;;;;;;;;;5.70;99.90;;;4.78;81.33;96956.28;10439864;28;1846;-78
2022/01/17 10:26:01;;;;;;;;;;;5.90;99.90;;;4.57;82.26;96944.00;10449844;28;1937;-76
2022/01/17 10:31:32;;;;;;;;;;;5.50;99.90;;;4.76;81.02;96960.16;10437513;28;1891;-75
2022/01/17 10:36:36;;;;;;;;;;;5.70;99.90;;;4.85;80.52;96957.09;10454334;28;1796;-77
2022/01/17 10:41:39;;;;;;;;;;;5.60;99.90;;;4.65;81.47;96950.97;10434953;28;1863;-78
2022/01/17 10:46:42;;;;;;;;;;;5.60;99.90;;;4.91;80.17;96944.78;10438717;28;1965;-76
2022/01/17 10:52:06;;;;;;;;;;;5.70;99.90;;;4.82;80.38;96965.47;10438321;28;2186;-77
2022/01/17 10:57:09;;;;;;;;;;;5.80;99.90;;;4.66;80.91;96973.94;10465211;28;1850;-81
2022/01/17 11:02:12;;;;;;;;;;;5.60;99.90;;;4.83;79.99;96959.13;10472218;28;1860;-80
2022/01/17 11:07:15;;;;;;;;;;;5.80;99.90;;;4.92;80.39;96959.75;10462963;28;1899;-80
2022/01/17 11:12:19;;;;;;;;;;;5.60;99.90;;;4.87;79.78;96959.53;10465414;28;1828;-80
2022/01/17 11:17:24;;;;;;;;;;;5.90;99.90;;;5.08;78.19;96961.13;10466335;28;1855;-78
2022/01/17 11:22:28;;;;;;;;;;;6.00;99.90;;;4.68;79.88;96955.06;10462534;28;1844;-80
2022/01/17 11:27:32;;;;;;;;;;;5.70;99.90;;;4.56;80.34;96982.31;10463778;28;1910;-80
2022/01/17 11:32:35;;;;;;;;;;;5.60;99.90;;;4.56;80.10;96960.19;10441788;28;1798;-80
2022/01/17 11:37:38;;;;;;;;;;;5.60;99.90;;;4.65;80.30;96950.97;10451578;28;1776;-79
2022/01/17 11:42:50;;;;;;;;;;;5.60;99.90;;;4.86;79.50;96934.75;10465172;28;1850;-80
2022/01/17 11:47:53;;;;;;;;;;;5.60;99.90;;;5.05;78.65;96925.06;10467454;28;1896;-79
2022/01/17 11:52:57;;;;;;;;;;;5.90;99.90;;;5.11;78.20;96934.06;10483581;28;1823;-77
2022/01/17 11:58:00;;;;;;;;;;;6.00;99.90;;;5.27;77.25;96970.88;10476055;28;2085;-78
2022/01/17 12:03:03;;;;;;;;;;;6.20;99.90;;;5.25;76.57;96956.16;10454585;28;1808;-78
2022/01/17 12:08:09;;;;;;;;;;;6.10;99.90;;;5.31;75.23;96950.78;10459967;28;1887;-82
2022/01/17 12:13:12;;;;;;;;;;;6.30;99.90;;;5.42;75.71;96974.13;10448023;28;1757;-86
2022/01/17 12:18:16;;;;;;;;;;;6.30;99.90;;;5.33;75.33;96970.06;10486622;28;1534;-85
2022/01/17 12:23:19;;;;;;;;;;;6.30;99.90;;;5.28;75.36;96916.56;10476240;28;1841;-83
2022/01/17 12:28:22;;;;;;;;;;;6.20;99.90;;;5.48;74.64;96910.31;10463115;28;1973;-78
2022/01/17 12:33:26;;;;;;;;;;;7.00;99.90;;;5.36;74.70;96910.97;10460002;28;1775;-75
2022/01/17 12:38:29;;;;;;;;;;;6.50;99.90;;;5.00;76.87;96918.72;10437895;28;1900;-75
2022/01/17 12:43:33;;;;;;;;;;;6.20;99.90;;;5.00;77.08;96905.38;10451629;28;1872;-75
2022/01/17 12:48:37;;;;;;;;;;;6.10;99.90;;;4.98;76.98;96880.81;10444236;28;1895;-78
2022/01/17 12:53:40;;;;;;;;;;;6.00;99.90;;;5.03;76.29;96905.00;10462615;28;1938;-77
2022/01/17 12:58:43;;;;;;;;;;;6.10;99.90;;;5.18;76.21;96904.72;10424572;28;1933;-79
2022/01/17 13:03:49;;;;;;;;;;;6.10;99.90;;;5.23;74.15;96873.72;10446201;28;1904;-79
2022/01/17 13:08:55;;;;;;;;;;;6.20;99.90;;;5.06;73.79;96899.22;10458389;28;1913;-81
2022/01/17 13:14:01;;;;;;;;;;;6.10;99.90;;;5.10;71.77;96895.13;10461462;28;1705;-79
2022/01/17 13:19:04;;;;;;;;;;;6.10;99.90;;;5.14;72.18;96922.97;10450316;28;1773;-78
2022/01/17 13:24:14;;;;;;;;;;;6.30;99.90;;;5.17;71.46;96913.75;10456201;28;1961;-79
2022/01/17 13:29:17;;;;;;;;;;;6.00;99.90;;;5.08;72.93;96913.16;10463174;28;1918;-79
2022/01/17 13:34:20;;;;;;;;;;;6.10;99.90;;;5.04;74.32;96888.78;10449676;28;1838;-76
2022/01/17 13:39:25;;;;;;;;;;;6.00;99.90;;;4.98;75.17;96870.97;10432137;28;1836;-76
2022/01/17 13:44:29;;;;;;;;;;;6.00;99.90;;;5.07;75.03;96885.69;10440231;28;1921;-77
2022/01/17 13:49:32;;;;;;;;;;;6.10;99.90;;;5.03;74.51;96889.00;10463555;28;2176;-78
2022/01/17 13:54:36;;;;;;;;;;;6.20;99.90;;;5.05;74.99;96866.44;10438320;28;1875;-77
2022/01/17 13:59:41;;;;;;;;;;;6.20;99.90;;;5.01;74.64;96880.38;10471969;28;1852;-79
2022/01/17 14:04:44;;;;;;;;;;;6.00;99.90;;;4.96;75.67;96893.50;10456986;28;1835;-77
2022/01/17 14:09:47;;;;;;;;;;;5.90;99.90;;;4.99;76.12;96898.44;10463171;28;1917;-77
2022/01/17 14:14:50;;;;;;;;;;;5.90;99.90;;;4.73;76.38;96915.31;10442364;28;1813;-77
2022/01/17 14:19:53;;;;;;;;;;;5.80;99.90;;;4.80;75.41;96921.44;10451767;28;1805;-76
2022/01/17 14:24:57;;;;;;;;;;;5.80;99.90;;;4.72;72.28;96903.84;10465313;28;2226;-77
2022/01/17 14:30:06;;;;;;;;;;;5.60;99.90;;;4.74;71.97;96932.94;10462121;28;1954;-78
2022/01/17 14:35:09;;;;;;;;;;;5.60;99.90;;;4.74;71.76;96939.06;10459464;28;1863;-78
2022/01/17 14:40:17;;;;;;;;;;;5.60;99.90;;;4.69;72.63;96946.84;10438394;28;1841;-78
2022/01/17 14:45:21;;;;;;;;;;;5.70;99.90;;;4.68;72.29;96929.25;10442096;28;1996;-79
2022/01/17 14:50:25;;;;;;;;;;;5.70;99.90;;;4.61;72.78;96933.78;10440117;28;1868;-79
2022/01/17 15:00:49;;;;;;;;;;;5.60;99.90;;;4.46;75.64;96965.13;10457228;28;1968;-78
2022/01/17 15:05:52;;;;;;;;;;;5.50;99.90;;;4.42;76.24;96982.53;10448560;28;1969;-77
2022/01/17 15:10:57;;;;;;;;;;;5.50;99.90;;;4.37;76.41;96979.66;10453844;28;1871;-79
2022/01/17 15:16:01;;;;;;;;;;;5.40;99.90;;;4.22;77.09;96972.72;10451537;28;2307;-79
2022/01/17 15:21:05;;;;;;;;;;;5.40;99.90;;;4.29;76.58;96978.03;10446151;28;1866;-78
2022/01/17 15:26:08;;;;;;;;;;;5.30;99.90;;;4.23;76.88;96998.28;10455347;28;1914;-79
2022/01/17 15:31:14;;;;;;;;;;;5.10;99.90;;;4.25;78.24;96998.91;10453870;28;1848;-79
2022/01/17 15:36:23;;;;;;;;;;;5.20;99.90;;;3.90;83.45;97005.41;10444074;28;1800;-76
2022/01/17 15:41:26;;;;;;;;;;;4.90;99.90;;;3.47;89.84;97011.81;10456241;28;1989;-79
2022/01/17 15:46:30;;;;;;;;;;;4.90;99.90;;;3.19;94.37;97025.19;10437624;28;1902;-78
2022/01/17 15:51:36;;;;;;;;;;;4.50;99.90;;;3.13;95.00;97031.28;10446521;28;2098;-79
2022/01/17 15:56:43;;;;;;;;;;;4.20;99.90;;;3.12;96.05;97032.31;10443220;28;1763;-79
2022/01/17 16:01:46;;;;;;;;;;;4.20;99.90;;;3.16;96.06;97038.84;10452900;28;1821;-78
2022/01/17 16:06:49;;;;;;;;;;;4.20;99.90;;;3.18;94.25;97044.81;10436940;28;1966;-77
2022/01/17 16:11:54;;;;;;;;;;;4.20;99.90;;;3.21;92.51;97040.94;10442702;28;1873;-76
2022/01/17 16:17:00;;;;;;;;;;;4.30;99.90;;;3.28;90.91;97035.66;10438674;28;1789;-75
2022/01/17 16:22:03;;;;;;;;;;;4.30;99.90;;;3.36;88.84;97040.78;10447720;28;1872;-77
2022/01/17 16:27:09;;;;;;;;;;;4.50;99.90;;;3.32;88.83;97044.88;10447352;28;1894;-77
2022/01/17 16:32:14;;;;;;;;;;;4.40;99.90;;;3.32;88.59;97058.16;10452085;28;1873;-77
2022/01/17 16:37:21;;;;;;;;;;;4.40;99.90;;;3.33;87.61;97051.81;10441355;28;1838;-76
2022/01/17 16:42:24;;;;;;;;;;;4.40;99.90;;;3.43;87.65;97057.59;10435785;28;1798;-76
2022/01/17 16:47:27;;;;;;;;;;;4.50;99.90;;;3.43;87.24;97073.53;10441212;28;1989;-77
2022/01/17 16:52:30;;;;;;;;;;;4.50;99.90;;;3.42;87.05;97071.91;10464114;28;1840;-77
2022/01/17 16:57:33;;;;;;;;;;;4.50;99.90;;;3.44;87.14;97080.53;10454329;28;1778;-77
2022/01/17 17:02:37;;;;;;;;;;;4.50;99.90;;;3.42;86.67;97079.88;10452216;28;1717;-76
2022/01/17 17:07:40;;;;;;;;;;;4.50;99.90;;;3.45;85.71;97093.59;10455789;28;1907;-77
2022/01/17 17:12:46;;;;;;;;;;;4.70;99.90;;;3.41;85.83;97080.91;10458827;28;1856;-78
2022/01/17 17:17:49;;;;;;;;;;;4.50;99.90;;;3.46;83.35;97089.09;10445123;28;1863;-78
2022/01/17 17:22:57;;;;;;;;;;;4.50;99.90;;;3.47;83.34;97101.38;10441366;28;1863;-79
2022/01/17 17:28:01;;;;;;;;;;;4.50;99.90;;;3.46;83.38;97113.03;10442247;28;2014;-79
2022/01/17 17:33:05;;;;;;;;;;;4.60;99.90;;;3.45;84.68;97106.09;10443666;28;1889;-78
2022/01/17 17:38:09;;;;;;;;;;;4.80;99.90;;;3.38;85.96;97102.56;10446534;28;1800;-80
2022/01/17 17:43:14;;;;;;;;;;;4.50;99.90;;;3.26;86.66;97115.56;10452579;28;1757;-78
2022/01/17 17:48:17;;;;;;;;;;;4.40;99.90;;;3.27;86.91;97132.34;10441285;28;1887;-79
2022/01/17 17:53:23;;;;;;;;;;;4.30;99.90;;;3.23;87.27;97132.72;10454295;28;1824;-73
2022/01/17 17:58:26;;;;;;;;;;;4.30;99.90;;;3.27;87.15;97135.81;10444911;28;1897;-73
2022/01/17 18:03:30;;;;;;;;;;;4.30;99.90;;;3.29;86.90;97139.09;10435932;28;2201;-71
2022/01/17 18:08:33;;;;;;;;;;;4.30;99.90;;;3.34;85.60;97136.66;10435837;28;1973;-74
2022/01/17 18:13:39;;;;;;;;;;;4.60;99.90;;;3.41;83.79;97164.13;10431294;28;1904;-74
2022/01/17 18:18:44;;;;;;;;;;;4.40;99.90;;;3.36;83.01;97147.09;10435941;28;1823;-74
2022/01/17 18:23:47;;;;;;;;;;;4.40;99.90;;;3.30;82.50;97153.19;10433819;28;1840;-74
2022/01/17 18:28:51;;;;;;;;;;;4.40;99.90;;;3.29;82.23;97156.88;10445188;28;1977;-75
2022/01/17 18:33:55;;;;;;;;;;;4.40;99.90;;;3.32;80.76;97169.78;10440089;28;1706;-76
2022/01/17 18:38:59;;;;;;;;;;;4.80;99.90;;;3.36;80.56;97168.38;10434559;28;1903;-75
2022/01/17 18:44:03;;;;;;;;;;;4.40;99.90;;;3.34;79.80;97167.75;10442959;28;1961;-76
2022/01/17 18:49:06;;;;;;;;;;;4.40;99.90;;;3.33;80.28;97164.28;10439134;28;1910;-76
2022/01/17 18:54:12;;;;;;;;;;;4.40;99.90;;;3.36;79.72;97171.84;10439779;28;1873;-76
2022/01/17 18:59:15;;;;;;;;;;;4.60;99.90;;;3.32;79.56;97167.13;10437121;28;1829;-76
2022/01/17 19:04:18;;;;;;;;;;;4.40;99.90;;;3.31;80.72;97176.09;10434567;28;1831;-76
2022/01/17 19:09:24;;;;;;;;;;;4.40;99.90;;;3.34;79.86;97175.72;10432488;28;2411;-76
2022/01/17 19:14:29;;;;;;;;;;;4.40;99.90;;;3.30;80.30;97171.78;10437722;28;1829;-76
2022/01/17 19:19:43;;;;;;;;;;;4.40;99.90;;;3.26;80.37;97163.41;10436754;28;1842;-75
2022/01/17 19:24:47;;;;;;;;;;;4.40;99.90;;;3.20;81.38;97177.47;10446779;28;1989;-76
2022/01/17 19:29:50;;;;;;;;;;;4.30;99.90;;;3.10;82.08;97176.97;10439767;28;1991;-76
2022/01/17 19:34:56;;;;;;;;;;;4.20;99.90;;;3.04;82.98;97170.56;10437524;28;2072;-76
2022/01/17 19:39:59;;;;;;;;;;;4.10;99.90;;;3.02;83.48;97151.38;10432965;28;1771;-75
2022/01/17 19:45:04;;;;;;;;;;;4.20;99.90;;;3.04;83.74;97175.88;10438483;28;1877;-79
2022/01/17 19:50:07;;;;;;;;;;;4.10;99.90;;;2.98;83.44;97171.34;10435860;28;1918;-74
2022/01/17 19:55:11;;;;;;;;;;;4.10;99.90;;;3.01;83.36;97181.59;10436645;28;1822;-76
2022/01/17 20:00:14;;;;;;;;;;;4.10;99.90;;;3.04;83.34;97189.16;10439952;28;1986;-75
2022/01/17 20:05:29;;;;;;;;;;;4.10;99.90;;;3.06;82.79;97204.94;10466677;28;1871;-76
2022/01/17 20:10:33;;;;;;;;;;;4.10;99.90;;;3.09;82.51;97202.72;10439736;28;2076;-78
2022/01/17 20:15:36;;;;;;;;;;;4.10;99.90;;;3.06;82.38;97205.78;10453818;28;2033;-78
2022/01/17 20:20:41;;;;;;;;;;;4.10;99.90;;;3.09;81.98;97216.00;10464071;28;2001;-77
2022/01/17 20:25:45;;;;;;;;;;;4.10;99.90;;;3.09;82.20;97220.50;10453046;28;1847;-76
2022/01/17 20:30:48;;;;;;;;;;;4.10;99.90;;;3.16;82.01;97235.47;10443517;28;1973;-79
2022/01/17 20:35:54;;;;;;;;;;;4.50;99.90;;;3.14;81.69;97237.50;10476081;28;1644;-77
2022/01/17 20:40:57;;;;;;;;;;;4.20;99.90;;;3.07;82.85;97231.31;10439249;28;1901;-78
2022/01/17 20:46:00;;;;;;;;;;;4.20;99.90;;;3.01;82.78;97237.38;10437420;28;1915;-78
2022/01/17 20:51:04;;;;;;;;;;;4.10;99.90;;;3.12;83.37;97220.94;10439828;28;1973;-78
2022/01/17 20:56:07;;;;;;;;;;;4.10;99.90;;;3.12;82.59;97215.63;10438527;28;1865;-78
2022/01/17 21:01:12;;;;;;;;;;;4.20;99.90;;;3.14;82.91;97218.09;10442725;28;1944;-81
2022/01/17 21:06:18;;;;;;;;;;;4.20;99.90;;;3.09;83.63;97223.97;10445494;28;1847;-76
2022/01/17 21:11:22;;;;;;;;;;;4.20;99.90;;;3.13;84.21;97233.22;10433486;28;2017;-79
2022/01/17 21:16:27;;;;;;;;;;;4.20;99.90;;;2.96;88.98;97232.63;10429094;28;1879;-77
2022/01/17 21:21:33;;;;;;;;;;;4.10;99.90;;;2.81;91.88;97239.84;10436520;28;1822;-78
2022/01/17 21:26:37;;;;;;;;;;;4.00;99.90;;;2.75;92.24;97229.16;10452281;28;1961;-80
2022/01/17 21:31:44;;;;;;;;;;;3.90;99.90;;;2.68;92.46;97219.28;10441766;28;1918;-76
2022/01/17 21:36:50;;;;;;;;;;;3.80;99.90;;;2.72;92.41;97235.66;10463962;28;1901;-75
2022/01/17 21:41:53;;;;;;;;;;;4.00;99.90;;;2.74;92.53;97217.72;10432019;28;1845;-75
2022/01/17 21:47:01;;;;;;;;;;;4.10;99.90;;;2.80;91.99;97216.13;10430948;28;1811;-75
2022/01/17 21:52:25;;;;;;;;;;;3.80;99.90;;;2.80;91.96;97222.28;10458830;28;2034;-76
2022/01/17 21:57:31;;;;;;;;;;;3.90;99.90;;;2.78;93.04;97229.59;10464022;28;2282;-76
2022/01/17 22:02:34;;;;;;;;;;;3.80;99.90;;;2.79;92.38;97235.72;10452436;28;1894;-77
2022/01/17 22:07:38;;;;;;;;;;;3.90;99.90;;;2.80;92.48;97240.88;10440634;28;1902;-76
2022/01/17 22:12:41;;;;;;;;;;;3.90;99.90;;;2.81;92.92;97239.84;10462215;28;1877;-76
2022/01/17 22:17:47;;;;;;;;;;;3.90;99.90;;;2.83;92.64;97224.53;10478093;28;1981;-76
2022/01/17 22:22:51;;;;;;;;;;;3.90;99.90;;;2.79;92.94;97228.56;10496744;28;1456;-76
2022/01/17 22:28:00;;;;;;;;;;;3.80;99.90;;;2.77;94.06;97229.78;10494472;28;1961;-75
2022/01/17 22:33:10;;;;;;;;;;;3.80;99.90;;;2.81;94.01;97231.88;10482558;28;1880;-77
2022/01/17 22:38:13;;;;;;;;;;;3.80;99.90;;;2.73;94.39;97226.66;10475525;28;1787;-76
2022/01/17 22:43:17;;;;;;;;;;;3.80;99.90;;;2.74;94.45;97199.13;10446774;28;1919;-76
2022/01/17 22:48:20;;;;;;;;;;;3.80;99.90;;;2.72;94.28;97209.91;10441582;28;1966;-76
2022/01/17 22:53:24;;;;;;;;;;;3.80;99.90;;;2.69;94.96;97220.94;10468404;28;1920;-75
2022/01/17 22:58:28;;;;;;;;;;;3.70;99.90;;;2.66;95.63;97209.84;10447064;28;1858;-75
2022/01/17 23:03:34;;;;;;;;;;;3.70;99.90;;;2.68;95.95;97192.75;10454632;28;1863;-75
2022/01/17 23:08:39;;;;;;;;;;;3.70;99.90;;;2.67;96.23;97191.09;10441268;28;1988;-74
2022/01/17 23:13:42;;;;;;;;;;;3.70;99.90;;;2.69;95.82;97210.31;10462689;28;1833;-77
2022/01/17 23:18:51;;;;;;;;;;;3.70;99.90;;;2.71;96.08;97196.84;10452194;28;1829;-76
2022/01/17 23:23:57;;;;;;;;;;;3.80;99.90;;;2.78;95.43;97200.38;10444608;28;1843;-75
2022/01/17 23:29:00;;;;;;;;;;;3.80;99.90;;;2.62;99.95;97213.91;10431061;28;1975;-74
2022/01/17 23:34:04;;;;;;;;;;;3.80;99.90;;;2.54;100.00;97217.47;10439857;28;1855;-75
2022/01/17 23:39:07;;;;;;;;;;;3.70;99.90;;;2.47;100.00;97216.59;10445286;28;2208;-76
2022/01/17 23:44:10;;;;;;;;;;;3.70;99.90;;;2.46;100.00;97206.16;10438198;28;1855;-76
2022/01/17 23:49:15;;;;;;;;;;;3.60;99.90;;;2.54;100.00;97206.88;10435598;28;1993;-75
2022/01/17 23:54:18;;;;;;;;;;;3.10;99.90;;;2.55;100.00;97213.84;10436514;28;1933;-76
2022/01/17 23:59:29;;;;;;;;;;;3.60;99.90;;;2.56;100.00;97207.53;10438453;28;2013;-76
